createdAt,value
2019-01-15T00:00:46.420Z,1.22
2019-01-15T00:01:46.835Z,1.2
2019-01-15T00:02:47.525Z,1.1
2019-01-15T00:03:47.940Z,1.13
2019-01-15T00:04:48.355Z,1.16
2019-01-15T00:05:49.480Z,1.25
2019-01-15T00:06:49.897Z,1.18
2019-01-15T00:07:51.146Z,1.2
2019-01-15T00:08:52.669Z,1.13
2019-01-15T00:09:53.086Z,1.18
2019-01-15T00:10:53.831Z,1.21
2019-01-15T00:11:54.522Z,1.14
2019-01-15T00:12:55.225Z,1.31
2019-01-15T00:13:56.471Z,1.2
2019-01-15T00:14:57.438Z,1.18
2019-01-15T00:15:57.841Z,1.1
2019-01-15T00:16:58.535Z,1.18
2019-01-15T00:17:58.675Z,1.14
2019-01-15T00:18:59.092Z,1.18
2019-01-15T00:20:00.986Z,1.2
2019-01-15T00:21:01.408Z,1.14
2019-01-15T00:22:02.376Z,1.16
2019-01-15T00:23:03.344Z,1.2
2019-01-15T00:24:03.759Z,1.13
2019-01-15T00:25:03.898Z,1.1
2019-01-15T00:26:04.763Z,1.13
2019-01-15T00:27:05.191Z,1.24
2019-01-15T00:28:05.607Z,1.21
2019-01-15T00:29:06.328Z,1.3
2019-01-15T00:30:06.465Z,1.3
2019-01-15T00:31:07.434Z,1.39
2019-01-15T00:32:07.570Z,1.28
2019-01-15T00:33:08.709Z,1.28
2019-01-15T00:34:09.847Z,1.36
2019-01-15T00:35:10.816Z,1.43
2019-01-15T00:36:11.656Z,1.48
2019-01-15T00:37:12.072Z,1.39
2019-01-15T00:38:12.817Z,1.34
2019-01-15T00:39:13.238Z,1.28
2019-01-15T00:40:13.952Z,1.32
2019-01-15T00:41:14.369Z,1.43
2019-01-15T00:42:16.826Z,1.3
2019-01-15T00:43:18.517Z,1.27
2019-01-15T00:44:19.208Z,1.3
2019-01-15T00:45:19.907Z,1.24
2019-01-15T00:46:20.737Z,1.3
2019-01-15T00:47:21.156Z,1.31
2019-01-15T00:48:21.572Z,1.27
2019-01-15T00:49:22.992Z,1.3
2019-01-15T00:50:23.408Z,1.3
2019-01-15T00:51:24.096Z,1.34
2019-01-15T00:52:24.566Z,1.25
2019-01-15T00:53:24.984Z,1.24
2019-01-15T00:54:26.124Z,1.18
2019-01-15T00:55:26.557Z,1.14
2019-01-15T00:56:27.122Z,1.14
2019-01-15T00:57:28.306Z,1.2
2019-01-15T00:58:28.717Z,1.2
2019-01-15T00:59:29.412Z,1.16
2019-01-15T01:00:30.155Z,1.07
2019-01-15T01:01:30.610Z,1.09
2019-01-15T01:02:31.299Z,1.2
2019-01-15T01:03:31.991Z,1.18
2019-01-15T01:04:32.683Z,1.13
2019-01-15T01:05:33.374Z,1.12
2019-01-15T01:06:34.286Z,1.1
2019-01-15T01:07:34.699Z,1.09
2019-01-15T01:08:35.120Z,1.12
2019-01-15T01:09:35.539Z,1.12
2019-01-15T01:10:36.983Z,1.13
2019-01-15T01:11:37.398Z,1.18
2019-01-15T01:12:38.537Z,1.18
2019-01-15T01:13:40.506Z,1.22
2019-01-15T01:14:39.925Z,1.25
2019-01-15T01:15:40.619Z,1.24
2019-01-15T01:16:41.464Z,1.2
2019-01-15T01:17:42.435Z,1.22
2019-01-15T01:18:43.592Z,1.3
2019-01-15T01:19:44.735Z,1.25
2019-01-15T01:20:46.151Z,1.3
2019-01-15T01:21:46.567Z,1.34
2019-01-15T01:22:47.538Z,1.36
2019-01-15T01:23:47.671Z,1.3
2019-01-15T01:24:48.367Z,1.24
2019-01-15T01:25:48.779Z,1.24
2019-01-15T01:26:49.603Z,1.2
2019-01-15T01:27:49.740Z,1.27
2019-01-15T01:28:50.428Z,1.27
2019-01-15T01:29:51.846Z,1.3
2019-01-15T01:30:51.983Z,1.3
2019-01-15T01:31:52.960Z,1.32
2019-01-15T01:32:53.374Z,1.27
2019-01-15T01:33:53.513Z,1.22
2019-01-15T01:34:54.206Z,1.21
2019-01-15T01:35:54.895Z,1.24
2019-01-15T01:36:55.443Z,1.28
2019-01-15T01:37:55.857Z,1.2
2019-01-15T01:38:57.550Z,1.25
2019-01-15T01:39:58.241Z,1.13
2019-01-15T01:40:58.377Z,1.12
2019-01-15T01:41:59.516Z,1.16
2019-01-15T01:43:00.494Z,1.1
2019-01-15T01:44:01.189Z,1.1
2019-01-15T01:45:02.200Z,0.96
2019-01-15T01:46:02.613Z,1.03
2019-01-15T01:47:03.502Z,1
2019-01-15T01:48:03.931Z,0.95
2019-01-15T01:49:04.629Z,0.95
2019-01-15T01:50:04.766Z,1.06
2019-01-15T01:51:05.184Z,1.04
2019-01-15T01:52:05.600Z,1.06
2019-01-15T01:53:06.571Z,1.09
2019-01-15T01:54:06.707Z,1.12
2019-01-15T01:55:07.127Z,1.1
2019-01-15T01:56:07.540Z,1
2019-01-15T01:57:08.105Z,1.06
2019-01-15T01:58:08.519Z,1.12
2019-01-15T01:59:09.657Z,1
2019-01-15T02:00:10.076Z,1.06
2019-01-15T02:01:11.216Z,1
2019-01-15T02:02:11.911Z,1.03
2019-01-15T02:03:12.601Z,0.95
2019-01-15T02:04:14.292Z,0.95
2019-01-15T02:05:14.707Z,0.85
2019-01-15T02:06:14.848Z,0.86
2019-01-15T02:07:15.413Z,0.84
2019-01-15T02:08:15.827Z,0.95
2019-01-15T02:09:16.239Z,0.95
2019-01-15T02:10:17.656Z,0.86
2019-01-15T02:11:17.791Z,0.85
2019-01-15T02:12:19.205Z,0.86
2019-01-15T02:13:19.176Z,0.82
2019-01-15T02:14:19.590Z,0.89
2019-01-15T02:15:20.728Z,0.88
2019-01-15T02:16:21.156Z,0.85
2019-01-15T02:17:21.977Z,0.81
2019-01-15T02:18:23.394Z,0.77
2019-01-15T02:19:24.372Z,0.82
2019-01-15T02:20:24.808Z,0.89
2019-01-15T02:21:26.224Z,0.85
2019-01-15T02:22:26.920Z,0.88
2019-01-15T02:23:27.056Z,0.85
2019-01-15T02:24:27.758Z,0.88
2019-01-15T02:25:28.918Z,0.82
2019-01-15T02:26:30.056Z,0.88
2019-01-15T02:27:30.880Z,0.82
2019-01-15T02:28:32.016Z,0.84
2019-01-15T02:29:33.153Z,0.95
2019-01-15T02:30:33.865Z,0.89
2019-01-15T02:31:34.856Z,0.95
2019-01-15T02:32:35.827Z,1.02
2019-01-15T02:33:36.239Z,1
2019-01-15T02:34:37.375Z,1.02
2019-01-15T02:35:38.515Z,1.03
2019-01-15T02:36:39.929Z,1.02
2019-01-15T02:37:40.341Z,1.03
2019-01-15T02:38:40.631Z,0.94
2019-01-15T02:39:41.324Z,1.04
2019-01-15T02:40:41.821Z,1.09
2019-01-15T02:41:42.795Z,1.13
2019-01-15T02:42:48.117Z,1.14
2019-01-15T02:43:49.143Z,1.18
2019-01-15T02:44:49.112Z,1.16
2019-01-15T02:45:50.192Z,1.14
2019-01-15T02:46:50.888Z,1.18
2019-01-15T02:47:51.837Z,1.18
2019-01-15T02:48:52.610Z,1.13
2019-01-15T02:49:53.863Z,1.16
2019-01-15T02:50:54.565Z,1.21
2019-01-15T02:51:56.255Z,1.2
2019-01-15T02:52:56.756Z,1.12
2019-01-15T02:53:58.773Z,1.06
2019-01-15T02:54:58.314Z,1.02
2019-01-15T02:55:58.728Z,1.1
2019-01-15T02:56:59.253Z,1.09
2019-01-15T02:58:00.144Z,1.03
2019-01-15T02:59:01.394Z,1.13
2019-01-15T03:00:01.866Z,1.07
2019-01-15T03:01:02.126Z,0.99
2019-01-15T03:02:02.417Z,1.13
2019-01-15T03:03:02.832Z,1.12
2019-01-15T03:04:04.082Z,1.06
2019-01-15T03:05:03.783Z,1.09
2019-01-15T03:06:05.029Z,1.16
2019-01-15T03:07:06.284Z,1.03
2019-01-15T03:08:06.707Z,0.96
2019-01-15T03:09:07.397Z,0.95
2019-01-15T03:10:08.146Z,1.03
2019-01-15T03:11:08.674Z,0.99
2019-01-15T03:12:09.196Z,1.02
2019-01-15T03:13:10.162Z,1.04
2019-01-15T03:14:10.578Z,1.02
2019-01-15T03:15:12.555Z,1.09
2019-01-15T03:16:12.543Z,1.12
2019-01-15T03:17:13.527Z,1.12
2019-01-15T03:18:13.927Z,1.13
2019-01-15T03:19:14.060Z,1.13
2019-01-15T03:20:14.486Z,1.13
2019-01-15T03:21:14.914Z,1.21
2019-01-15T03:22:16.602Z,1.2
2019-01-15T03:23:17.295Z,1.22
2019-01-15T03:24:17.989Z,1.24
2019-01-15T03:25:18.967Z,1.2
2019-01-15T03:26:19.213Z,1.24
2019-01-15T03:27:19.916Z,1.3
2019-01-15T03:28:20.497Z,1.24
2019-01-15T03:29:21.477Z,1.27
2019-01-15T03:30:22.209Z,1.31
2019-01-15T03:31:24.066Z,1.18
2019-01-15T03:32:24.676Z,1.27
2019-01-15T03:33:24.992Z,1.2
2019-01-15T03:34:25.697Z,1.24
2019-01-15T03:35:26.960Z,1.1
2019-01-15T03:36:27.497Z,1.12
2019-01-15T03:37:28.465Z,1.1
2019-01-15T03:38:29.854Z,1.16
2019-01-15T03:39:30.552Z,1.14
2019-01-15T03:40:31.802Z,1.2
2019-01-15T03:41:32.214Z,1.14
2019-01-15T03:42:32.469Z,1.13
2019-01-15T03:43:33.731Z,1.13
2019-01-15T03:44:34.271Z,1.18
2019-01-15T03:45:34.969Z,1.07
2019-01-15T03:46:35.384Z,1.07
2019-01-15T03:47:36.076Z,1.07
2019-01-15T03:48:36.765Z,1.16
2019-01-15T03:49:37.738Z,1.03
2019-01-15T03:50:38.148Z,1.03
2019-01-15T03:51:38.901Z,1
2019-01-15T03:52:40.034Z,1.1
2019-01-15T03:53:41.032Z,1.09
2019-01-15T03:54:42.003Z,1
2019-01-15T03:55:42.704Z,1.13
2019-01-15T03:56:42.838Z,1.16
2019-01-15T03:57:44.271Z,1.1
2019-01-15T03:58:45.204Z,0.96
2019-01-15T03:59:45.186Z,1.09
2019-01-15T04:00:45.596Z,0.96
2019-01-15T04:01:46.306Z,0.99
2019-01-15T04:02:47.458Z,1
2019-01-15T04:03:48.725Z,0.94
2019-01-15T04:04:49.022Z,0.95
2019-01-15T04:05:49.561Z,0.84
2019-01-15T04:06:50.253Z,0.84
2019-01-15T04:07:51.221Z,0.78
2019-01-15T04:08:52.337Z,0.84
2019-01-15T04:09:52.310Z,0.89
2019-01-15T04:10:53.280Z,0.82
2019-01-15T04:11:54.246Z,0.82
2019-01-15T04:12:53.938Z,0.88
2019-01-15T04:13:55.462Z,0.86
2019-01-15T04:14:55.482Z,0.81
2019-01-15T04:15:56.176Z,0.84
2019-01-15T04:16:57.144Z,0.82
2019-01-15T04:17:58.390Z,0.71
2019-01-15T04:18:58.372Z,0.7
2019-01-15T04:19:58.793Z,0.68
2019-01-15T04:20:59.910Z,0.66
2019-01-15T04:21:59.883Z,0.66
2019-01-15T04:23:01.409Z,0.67
2019-01-15T04:24:00.821Z,0.68
2019-01-15T04:25:01.237Z,0.61
2019-01-15T04:26:01.774Z,0.61
2019-01-15T04:27:02.466Z,0.58
2019-01-15T04:28:03.879Z,0.58
2019-01-15T04:29:05.311Z,0.61
2019-01-15T04:30:06.002Z,0.61
2019-01-15T04:31:06.695Z,0.61
2019-01-15T04:32:07.113Z,0.66
2019-01-15T04:33:08.361Z,0.63
2019-01-15T04:34:08.564Z,0.67
2019-01-15T04:35:09.852Z,0.73
2019-01-15T04:36:10.126Z,0.68
2019-01-15T04:37:10.539Z,0.58
2019-01-15T04:38:11.679Z,0.73
2019-01-15T04:39:12.785Z,0.78
2019-01-15T04:40:13.505Z,0.84
2019-01-15T04:41:14.760Z,0.77
2019-01-15T04:42:15.170Z,0.76
2019-01-15T04:43:21.294Z,0.84
2019-01-15T04:44:22.265Z,0.76
2019-01-15T04:45:22.231Z,0.81
2019-01-15T04:46:22.993Z,0.84
2019-01-15T04:47:23.961Z,0.85
2019-01-15T04:48:24.929Z,0.84
2019-01-15T04:49:25.203Z,0.84
2019-01-15T04:50:25.363Z,0.81
2019-01-15T04:51:26.050Z,0.85
2019-01-15T04:52:27.187Z,0.81
2019-01-15T04:53:28.438Z,0.89
2019-01-15T04:54:28.844Z,0.88
2019-01-15T04:55:29.270Z,0.82
2019-01-15T04:56:30.516Z,0.89
2019-01-15T04:57:30.925Z,0.85
2019-01-15T04:58:32.064Z,0.85
2019-01-15T04:59:32.609Z,0.82
2019-01-15T05:00:33.580Z,0.84
2019-01-15T05:01:33.992Z,0.91
2019-01-15T05:02:34.684Z,0.94
2019-01-15T05:03:34.818Z,0.78
2019-01-15T05:04:36.238Z,0.96
2019-01-15T05:05:36.206Z,0.94
2019-01-15T05:06:37.616Z,0.86
2019-01-15T05:07:38.594Z,0.86
2019-01-15T05:08:38.837Z,0.94
2019-01-15T05:09:39.402Z,0.82
2019-01-15T05:10:40.093Z,0.89
2019-01-15T05:11:40.791Z,0.84
2019-01-15T05:12:41.331Z,0.81
2019-01-15T05:13:42.017Z,0.82
2019-01-15T05:14:42.717Z,0.82
2019-01-15T05:15:43.977Z,0.88
2019-01-15T05:16:44.115Z,0.94
2019-01-15T05:17:46.012Z,0.86
2019-01-15T05:18:46.284Z,0.88
2019-01-15T05:19:46.422Z,0.88
2019-01-15T05:20:47.409Z,0.84
2019-01-15T05:21:48.654Z,0.91
2019-01-15T05:22:49.073Z,0.77
2019-01-15T05:23:49.342Z,0.82
2019-01-15T05:24:49.669Z,0.82
2019-01-15T05:25:51.085Z,0.84
2019-01-15T05:26:51.822Z,0.88
2019-01-15T05:27:52.239Z,0.82
2019-01-15T05:28:53.212Z,0.85
2019-01-15T05:29:54.404Z,0.89
2019-01-15T05:30:54.376Z,0.84
2019-01-15T05:31:54.787Z,0.94
2019-01-15T05:32:55.757Z,0.94
2019-01-15T05:33:56.448Z,0.92
2019-01-15T05:34:57.706Z,1
2019-01-15T05:35:58.250Z,1.02
2019-01-15T05:36:58.959Z,0.96
2019-01-15T05:37:59.211Z,0.95
2019-01-15T05:38:59.462Z,0.99
2019-01-15T05:40:00.005Z,0.99
2019-01-15T05:41:00.616Z,1.02
2019-01-15T05:42:00.870Z,1.12
2019-01-15T05:43:01.114Z,1
2019-01-15T05:44:01.527Z,1.02
2019-01-15T05:45:02.507Z,1.12
2019-01-15T05:46:03.249Z,1.1
2019-01-15T05:47:03.674Z,1.21
2019-01-15T05:48:04.651Z,1.21
2019-01-15T05:49:04.918Z,1.16
2019-01-15T05:50:05.737Z,1.13
2019-01-15T05:51:05.704Z,1.13
2019-01-15T05:52:06.394Z,1.14
2019-01-15T05:53:06.812Z,1.16
2019-01-15T05:54:07.232Z,1.18
2019-01-15T05:55:07.838Z,1.16
2019-01-15T05:56:10.848Z,1.21
2019-01-15T05:57:12.533Z,1.24
2019-01-15T05:58:12.287Z,1.24
2019-01-15T05:59:12.976Z,1.24
2019-01-15T06:00:13.523Z,1.25
2019-01-15T06:01:14.214Z,1.31
2019-01-15T06:02:14.630Z,1.28
2019-01-15T06:03:15.044Z,1.16
2019-01-15T06:04:16.179Z,1.18
2019-01-15T06:05:16.641Z,1.24
2019-01-15T06:06:18.166Z,1.18
2019-01-15T06:07:18.857Z,1.2
2019-01-15T06:08:18.994Z,1.21
2019-01-15T06:09:19.682Z,1.14
2019-01-15T06:10:20.234Z,1.2
2019-01-15T06:11:20.928Z,1.25
2019-01-15T06:12:22.171Z,1.3
2019-01-15T06:13:22.584Z,1.27
2019-01-15T06:14:23.324Z,1.28
2019-01-15T06:15:23.479Z,1.25
2019-01-15T06:16:24.168Z,1.25
2019-01-15T06:17:25.140Z,1.3
2019-01-15T06:18:25.876Z,1.27
2019-01-15T06:19:26.309Z,1.36
2019-01-15T06:20:27.410Z,1.3
2019-01-15T06:21:27.543Z,1.31
2019-01-15T06:22:27.962Z,1.3
2019-01-15T06:23:28.932Z,1.3
2019-01-15T06:24:29.627Z,1.3
2019-01-15T06:25:30.034Z,1.25
2019-01-15T06:26:31.002Z,1.4
2019-01-15T06:27:31.247Z,1.4
2019-01-15T06:28:32.048Z,1.34
2019-01-15T06:29:32.464Z,1.28
2019-01-15T06:30:33.309Z,1.32
2019-01-15T06:31:34.278Z,1.27
2019-01-15T06:32:35.692Z,1.34
2019-01-15T06:33:35.827Z,1.42
2019-01-15T06:34:37.242Z,1.38
2019-01-15T06:35:38.938Z,1.4
2019-01-15T06:36:39.650Z,1.56
2019-01-15T06:37:40.706Z,1.57
2019-01-15T06:38:40.843Z,1.56
2019-01-15T06:39:41.534Z,1.56
2019-01-15T06:40:42.633Z,1.64
2019-01-15T06:41:42.808Z,1.56
2019-01-15T06:42:43.220Z,1.61
2019-01-15T06:43:51.317Z,1.68
2019-01-15T06:43:55.695Z,1.63
2019-01-15T06:44:56.514Z,1.61
2019-01-15T06:45:57.211Z,1.61
2019-01-15T06:46:58.466Z,1.63
2019-01-15T06:47:59.709Z,1.67
2019-01-15T06:49:00.126Z,1.53
2019-01-15T06:50:00.709Z,1.58
2019-01-15T06:51:01.400Z,1.52
2019-01-15T06:52:01.932Z,1.46
2019-01-15T06:53:02.623Z,1.48
2019-01-15T06:54:02.766Z,1.4
2019-01-15T06:55:03.648Z,1.43
2019-01-15T06:56:04.065Z,1.39
2019-01-15T06:57:05.058Z,1.36
2019-01-15T06:58:06.310Z,1.34
2019-01-15T06:59:07.003Z,1.34
2019-01-15T07:00:07.697Z,1.42
2019-01-15T07:01:08.390Z,1.38
2019-01-15T07:02:09.356Z,1.4
2019-01-15T07:03:10.456Z,1.31
2019-01-15T07:04:11.497Z,1.38
2019-01-15T07:05:14.190Z,1.36
2019-01-15T07:06:13.399Z,1.34
2019-01-15T07:07:14.920Z,1.43
2019-01-15T07:08:15.617Z,1.5
2019-01-15T07:09:16.315Z,1.4
2019-01-15T07:10:17.009Z,1.42
2019-01-15T07:11:18.414Z,1.4
2019-01-15T07:11:30.203Z,1.43
2019-01-15T07:12:34.000Z,1.43
2019-01-15T07:12:45.298Z,1.4
2019-01-15T07:12:57.428Z,1.48
2019-01-15T07:13:09.471Z,1.42
2019-01-15T07:13:20.047Z,1.46
2019-01-15T07:14:18.269Z,1.4
2019-01-15T07:15:18.883Z,1.43
2019-01-15T07:16:19.244Z,1.53
2019-01-15T07:17:21.439Z,1.52
2019-01-15T07:18:21.686Z,1.63
2019-01-15T07:19:22.935Z,1.58
2019-01-15T07:20:23.631Z,1.57
2019-01-15T07:21:24.048Z,1.63
2019-01-15T07:22:25.296Z,1.61
2019-01-15T07:23:28.512Z,1.53
2019-01-15T07:24:28.423Z,1.61
2019-01-15T07:25:28.899Z,1.64
2019-01-15T07:26:29.373Z,1.71
2019-01-15T07:27:30.064Z,1.74
2019-01-15T07:28:31.315Z,1.7
2019-01-15T07:29:35.541Z,1.64
2019-01-15T07:29:45.480Z,1.63
2019-01-15T07:30:46.627Z,1.66
2019-01-15T07:31:47.323Z,1.79
2019-01-15T07:32:51.206Z,1.78
2019-01-15T07:33:49.475Z,1.75
2019-01-15T07:34:50.196Z,1.76
2019-01-15T07:35:50.618Z,1.82
2019-01-15T07:36:51.596Z,1.75
2019-01-15T07:37:52.012Z,1.84
2019-01-15T07:38:55.829Z,1.79
2019-01-15T07:39:04.455Z,1.81
2019-01-15T07:40:05.285Z,1.79
2019-01-15T07:41:05.697Z,1.85
2019-01-15T07:42:06.116Z,1.92
2019-01-15T07:43:06.543Z,1.79
2019-01-15T07:44:07.702Z,1.86
2019-01-15T07:45:08.952Z,1.93
2019-01-15T07:46:11.402Z,1.98
2019-01-15T07:47:11.353Z,2
2019-01-15T07:48:12.603Z,1.93
2019-01-15T07:49:12.748Z,1.86
2019-01-15T07:50:13.657Z,1.89
2019-01-15T07:51:14.886Z,1.88
2019-01-15T07:52:15.629Z,2
2019-01-15T07:53:15.799Z,1.98
2019-01-15T07:54:16.516Z,1.95
2019-01-15T07:55:18.986Z,1.92
2019-01-15T07:56:18.615Z,2.08
2019-01-15T07:57:19.336Z,2.15
2019-01-15T07:58:19.753Z,2.16
2019-01-15T07:59:21.025Z,2.15
2019-01-15T08:00:21.706Z,2.16
2019-01-15T08:01:22.396Z,2.22
2019-01-15T08:02:22.818Z,2.22
2019-01-15T08:03:24.234Z,2.21
2019-01-15T08:04:24.782Z,2.19
2019-01-15T08:05:25.764Z,2.22
2019-01-15T08:06:28.101Z,2.21
2019-01-15T08:07:27.076Z,2.19
2019-01-15T08:08:27.494Z,2.22
2019-01-15T08:09:28.197Z,2.25
2019-01-15T08:10:28.745Z,2.26
2019-01-15T08:11:30.443Z,2.28
2019-01-15T08:12:34.873Z,2.3
2019-01-15T08:12:45.596Z,2.39
2019-01-15T08:13:43.507Z,2.4
2019-01-15T08:14:44.211Z,2.39
2019-01-15T08:15:44.902Z,2.41
2019-01-15T08:16:46.045Z,2.43
2019-01-15T08:17:46.513Z,2.46
2019-01-15T08:18:47.238Z,2.55
2019-01-15T08:19:47.660Z,2.58
2019-01-15T08:20:48.806Z,2.59
2019-01-15T08:21:49.228Z,2.61
2019-01-15T08:22:50.370Z,2.57
2019-01-15T08:23:51.798Z,2.58
2019-01-15T08:24:52.218Z,2.61
2019-01-15T08:25:52.635Z,2.55
2019-01-15T08:26:53.375Z,2.65
2019-01-15T08:27:54.116Z,2.73
2019-01-15T08:28:54.540Z,2.73
2019-01-15T08:29:55.236Z,2.72
2019-01-15T08:30:56.652Z,2.65
2019-01-15T08:31:57.349Z,2.73
2019-01-15T08:33:02.099Z,2.7
2019-01-15T08:33:12.694Z,2.87
2019-01-15T08:34:10.362Z,2.72
2019-01-15T08:35:10.508Z,2.75
2019-01-15T08:36:10.964Z,2.73
2019-01-15T08:37:12.385Z,2.88
2019-01-15T08:38:12.361Z,2.85
2019-01-15T08:39:13.104Z,2.8
2019-01-15T08:40:13.272Z,2.93
2019-01-15T08:41:14.247Z,2.94
2019-01-15T08:42:14.909Z,2.93
2019-01-15T08:43:16.251Z,2.95
2019-01-15T08:44:20.491Z,2.91
2019-01-15T08:44:29.087Z,3
2019-01-15T08:45:28.612Z,2.97
2019-01-15T08:46:30.034Z,2.97
2019-01-15T08:47:30.172Z,2.98
2019-01-15T08:48:31.325Z,3.08
2019-01-15T08:49:32.021Z,3.08
2019-01-15T08:50:33.161Z,3.01
2019-01-15T08:51:33.585Z,3.11
2019-01-15T08:52:34.336Z,3.08
2019-01-15T08:53:34.806Z,3.13
2019-01-15T08:54:35.509Z,3.03
2019-01-15T08:55:35.758Z,3.03
2019-01-15T08:56:37.310Z,2.95
2019-01-15T08:57:38.283Z,3.09
2019-01-15T08:58:38.982Z,3.11
2019-01-15T08:59:40.403Z,3.09
2019-01-15T09:00:41.462Z,3.05
2019-01-15T09:01:41.483Z,3.08
2019-01-15T09:02:42.654Z,3.15
2019-01-15T09:03:42.912Z,3.05
2019-01-15T09:04:44.056Z,3.08
2019-01-15T09:05:44.889Z,3.05
2019-01-15T09:06:45.864Z,3.09
2019-01-15T09:07:46.297Z,3.12
2019-01-15T09:08:46.994Z,3.12
2019-01-15T09:09:52.531Z,3.08
2019-01-15T09:10:00.366Z,3.09
2019-01-15T09:11:00.484Z,3.11
2019-01-15T09:12:01.596Z,3.18
2019-01-15T09:13:02.343Z,3.19
2019-01-15T09:14:02.877Z,3.24
2019-01-15T09:15:03.332Z,3.33
2019-01-15T09:16:04.594Z,3.24
2019-01-15T09:17:12.189Z,3.26
2019-01-15T09:17:17.865Z,3.3
2019-01-15T09:18:18.202Z,3.3
2019-01-15T09:19:18.900Z,3.37
2019-01-15T09:20:25.848Z,3.34
2019-01-15T09:20:32.574Z,3.55
2019-01-15T09:21:31.798Z,3.37
2019-01-15T09:22:32.776Z,3.43
2019-01-15T09:23:34.471Z,3.45
2019-01-15T09:24:34.616Z,3.49
2019-01-15T09:25:36.053Z,3.56
2019-01-15T09:26:36.685Z,3.34
2019-01-15T09:27:37.208Z,3.29
2019-01-15T09:28:37.850Z,3.43
2019-01-15T09:29:38.989Z,3.41
2019-01-15T09:30:42.151Z,3.43
2019-01-15T09:31:41.729Z,3.49
2019-01-15T09:32:42.711Z,3.36
2019-01-15T09:33:43.333Z,3.45
2019-01-15T09:34:44.485Z,3.46
2019-01-15T09:35:46.307Z,3.49
2019-01-15T09:36:45.839Z,3.52
2019-01-15T09:37:46.540Z,3.63
2019-01-15T09:38:46.968Z,3.67
2019-01-15T09:39:49.324Z,3.63
2019-01-15T09:40:02.644Z,3.66
2019-01-15T09:41:00.465Z,3.71
2019-01-15T09:42:01.190Z,3.73
2019-01-15T09:43:01.553Z,3.7
2019-01-15T09:44:03.100Z,3.91
2019-01-15T09:45:03.798Z,3.86
2019-01-15T09:46:04.496Z,3.84
2019-01-15T09:47:05.473Z,3.84
2019-01-15T09:48:05.894Z,3.84
2019-01-15T09:49:07.040Z,3.94
2019-01-15T09:50:10.917Z,3.91
2019-01-15T09:51:09.427Z,3.94
2019-01-15T09:52:26.869Z,3.92
2019-01-15T09:52:34.810Z,4
2019-01-15T09:53:34.155Z,3.85
2019-01-15T09:54:35.575Z,3.92
2019-01-15T09:55:40.080Z,4.09
2019-01-15T09:55:51.122Z,4.09
2019-01-15T09:56:00.890Z,4.09
2019-01-15T09:57:01.173Z,4.13
2019-01-15T09:58:05.615Z,4.18
2019-01-15T09:58:16.697Z,4.21
2019-01-15T09:59:14.930Z,4.21
2019-01-15T10:00:15.078Z,4.31
2019-01-15T10:01:16.055Z,4.32
2019-01-15T10:02:17.315Z,4.38
2019-01-15T10:03:17.015Z,4.46
2019-01-15T10:04:21.743Z,4.48
2019-01-15T10:04:31.544Z,4.46
2019-01-15T10:05:30.578Z,4.46
2019-01-15T10:06:31.003Z,4.49
2019-01-15T10:07:32.258Z,4.53
2019-01-15T10:08:32.682Z,4.57
2019-01-15T10:09:36.404Z,4.46
2019-01-15T10:09:46.157Z,4.48
2019-01-15T10:10:47.947Z,4.31
2019-01-15T10:11:47.371Z,4.14
2019-01-15T10:12:48.082Z,4.02
2019-01-15T10:13:48.778Z,4.03
2019-01-15T10:14:49.478Z,4.02
2019-01-15T10:15:49.904Z,4.1
2019-01-15T10:16:50.881Z,4.09
2019-01-15T10:17:51.582Z,4.14
2019-01-15T10:18:52.035Z,4.2
2019-01-15T10:19:52.469Z,4.27
2019-01-15T10:20:53.298Z,4.28
2019-01-15T10:21:54.009Z,4.3
2019-01-15T10:22:54.434Z,4.45
2019-01-15T10:23:55.856Z,4.52
2019-01-15T10:24:56.785Z,4.57
2019-01-15T10:25:58.208Z,4.56
2019-01-15T10:26:58.353Z,4.64
2019-01-15T10:27:59.100Z,4.71
2019-01-15T10:29:01.295Z,4.7
2019-01-15T10:30:02.008Z,4.78
2019-01-15T10:31:02.557Z,4.79
2019-01-15T10:32:03.258Z,4.92
2019-01-15T10:33:04.240Z,4.83
2019-01-15T10:34:04.937Z,4.79
2019-01-15T10:35:05.275Z,4.86
2019-01-15T10:36:06.391Z,4.74
2019-01-15T10:37:06.535Z,4.74
2019-01-15T10:38:09.158Z,4.56
2019-01-15T10:39:09.294Z,4.67
2019-01-15T10:40:10.446Z,4.66
2019-01-15T10:41:11.005Z,4.67
2019-01-15T10:42:11.983Z,4.84
2019-01-15T10:43:11.961Z,4.86
2019-01-15T10:44:12.937Z,4.92
2019-01-15T10:45:13.643Z,5
2019-01-15T10:46:14.897Z,5.1
2019-01-15T10:47:15.210Z,5.15
2019-01-15T10:48:15.630Z,5.12
2019-01-15T10:49:17.049Z,5.2
2019-01-15T10:50:18.325Z,5.28
2019-01-15T10:51:18.887Z,5.38
2019-01-15T10:52:19.310Z,5.36
2019-01-15T10:53:20.458Z,5.41
2019-01-15T10:54:21.158Z,5.41
2019-01-15T10:55:21.307Z,5.43
2019-01-15T10:56:22.779Z,5.44
2019-01-15T10:57:23.354Z,5.54
2019-01-15T10:58:23.881Z,5.46
2019-01-15T10:59:24.703Z,5.69
2019-01-15T11:00:25.250Z,5.59
2019-01-15T11:01:26.163Z,5.58
2019-01-15T11:02:26.598Z,5.79
2019-01-15T11:03:27.577Z,5.88
2019-01-15T11:04:28.383Z,5.9
2019-01-15T11:05:29.047Z,5.97
2019-01-15T11:06:30.472Z,5.94
2019-01-15T11:07:31.472Z,5.95
2019-01-15T11:08:35.483Z,5.88
2019-01-15T11:09:33.824Z,5.74
2019-01-15T11:10:34.530Z,5.88
2019-01-15T11:11:35.641Z,5.87
2019-01-15T11:12:36.069Z,5.76
2019-01-15T11:13:36.769Z,5.88
2019-01-15T11:14:37.470Z,5.98
2019-01-15T11:15:44.342Z,5.99
2019-01-15T11:15:51.170Z,6.01
2019-01-15T11:16:52.047Z,6.06
2019-01-15T11:17:52.752Z,6.01
2019-01-15T11:18:53.447Z,6.12
2019-01-15T11:19:54.207Z,6.05
2019-01-15T11:20:55.630Z,5.88
2019-01-15T11:21:56.331Z,5.84
2019-01-15T11:22:57.031Z,5.7
2019-01-15T11:23:57.731Z,5.79
2019-01-15T11:24:58.433Z,5.84
2019-01-15T11:25:59.165Z,5.9
2019-01-15T11:26:59.718Z,5.88
2019-01-15T11:28:00.458Z,5.94
2019-01-15T11:29:01.166Z,5.88
2019-01-15T11:30:02.420Z,5.98
2019-01-15T11:31:05.973Z,5.97
2019-01-15T11:31:18.878Z,5.91
2019-01-15T11:32:16.358Z,5.95
2019-01-15T11:33:19.314Z,5.91
2019-01-15T11:33:29.766Z,5.99
2019-01-15T11:34:33.819Z,6.05
2019-01-15T11:34:44.250Z,6.09
2019-01-15T11:34:55.240Z,6.09
2019-01-15T11:35:08.607Z,6.07
2019-01-15T11:35:22.992Z,6.09
2019-01-15T11:35:35.647Z,6.01
2019-01-15T11:36:33.390Z,5.98
2019-01-15T11:37:33.552Z,6.1
2019-01-15T11:38:34.972Z,6.19
2019-01-15T11:39:36.531Z,6.36
2019-01-15T11:40:36.332Z,6.36
2019-01-15T11:41:37.479Z,6.46
2019-01-15T11:42:38.183Z,6.6
2019-01-15T11:43:40.704Z,6.68
2019-01-15T11:44:40.601Z,6.75
2019-01-15T11:45:42.298Z,6.68
2019-01-15T11:46:47.054Z,6.92
2019-01-15T11:46:55.306Z,6.83
2019-01-15T11:47:55.145Z,6.96
2019-01-15T11:48:55.845Z,6.72
2019-01-15T11:49:56.551Z,6.68
2019-01-15T11:50:56.977Z,6.87
2019-01-15T11:51:57.680Z,6.85
2019-01-15T11:52:58.179Z,6.85
2019-01-15T11:53:58.325Z,6.89
2019-01-15T11:54:59.751Z,6.93
2019-01-15T11:56:00.234Z,6.97
2019-01-15T11:57:01.226Z,6.87
2019-01-15T11:58:01.969Z,6.85
2019-01-15T11:59:06.786Z,7.03
2019-01-15T11:59:16.268Z,7.03
2019-01-15T12:00:16.212Z,7.04
2019-01-15T12:01:16.813Z,7.18
2019-01-15T12:02:23.518Z,7.39
2019-01-15T12:02:29.218Z,7.37
2019-01-15T12:03:29.730Z,7.32
2019-01-15T12:04:32.446Z,7.44
2019-01-15T12:05:35.631Z,7.5
2019-01-15T12:05:45.325Z,7.55
2019-01-15T12:06:44.840Z,7.55
2019-01-15T12:07:44.932Z,7.51
2019-01-15T12:08:46.078Z,7.56
2019-01-15T12:09:46.784Z,7.43
2019-01-15T12:10:48.235Z,7.44
2019-01-15T12:11:48.931Z,7.51
2019-01-15T12:12:49.677Z,7.55
2019-01-15T12:13:51.213Z,7.53
2019-01-15T12:14:54.508Z,7.51
2019-01-15T12:15:20.148Z,7.7
2019-01-15T12:15:32.150Z,7.67
2019-01-15T12:15:44.693Z,7.62
2019-01-15T12:15:57.024Z,7.66
2019-01-15T12:16:07.655Z,7.62
2019-01-15T12:17:06.096Z,7.55
2019-01-15T12:18:06.802Z,7.72
2019-01-15T12:19:07.227Z,7.74
2019-01-15T12:20:07.940Z,7.53
2019-01-15T12:21:09.365Z,7.46
2019-01-15T12:22:09.510Z,7.48
2019-01-15T12:23:10.768Z,7.39
2019-01-15T12:24:10.917Z,7.47
2019-01-15T12:25:12.341Z,7.51
2019-01-15T12:26:16.329Z,7.84
2019-01-15T12:26:25.952Z,7.95
2019-01-15T12:27:25.072Z,8.17
2019-01-15T12:28:26.054Z,8.32
2019-01-15T12:29:29.566Z,8.61
2019-01-15T12:30:28.185Z,8.86
2019-01-15T12:31:29.935Z,8.96
2019-01-15T12:32:30.184Z,9.29
2019-01-15T12:33:31.745Z,9.03
2019-01-15T12:34:32.056Z,9.13
2019-01-15T12:35:37.149Z,9.29
2019-01-15T12:35:46.510Z,9.31
2019-01-15T12:36:48.408Z,9.33
2019-01-15T12:37:00.488Z,9.52
2019-01-15T12:38:02.648Z,9.59
2019-01-15T12:39:06.049Z,9.48
2019-01-15T12:39:17.337Z,9.66
2019-01-15T12:39:27.263Z,9.69
2019-01-15T12:40:27.315Z,9.67
2019-01-15T12:41:28.463Z,9.48
2019-01-15T12:42:29.177Z,9.31
2019-01-15T12:43:30.613Z,9.3
2019-01-15T12:44:34.042Z,9.26
2019-01-15T12:45:36.601Z,9.24
2019-01-15T12:46:34.599Z,9.05
2019-01-15T12:47:34.598Z,8.81
2019-01-15T12:48:35.034Z,8.56
2019-01-15T12:49:35.754Z,8.46
2019-01-15T12:50:36.927Z,8.42
2019-01-15T12:51:37.632Z,8.23
2019-01-15T12:52:38.335Z,8.23
2019-01-15T12:53:38.605Z,8.27
2019-01-15T12:54:39.434Z,8.27
2019-01-15T12:55:43.399Z,8.44
2019-01-15T12:55:53.776Z,8.32
2019-01-15T12:56:56.674Z,8.28
2019-01-15T12:57:06.763Z,8.23